Abadi — V8V2002 — position and weather

sailwx.info

Track history (hours):
 
Tides and Currents Weather Stations Pressure Air Temp Water Temp Dewpoint Dewpoint Depression Visibility Wind Speed Wind Dir Waves Ship Positions

Abadi

Last reported at 2015-Jan-17 10:07 UTC. Time now 2015-Jan-29 12:23 UTC.
Position N 34°31' E 139°35'.
Warning: this ship's position is 12 days out of date.

Type: Ship (hazmat cat A). MMSI: 508011000.

Date/timePositionNaut miles runAvg speedWind from/ knotsBaromVisibWave heightAir tempDewpointWater temp
2015-Jan-17 10:07N 34°31' E 139°35'1115.3
2015-Jan-17 09:23N 34°42' E 139°38'1416.4
2015-Jan-17 08:33N 34°56' E 139°38'1212.5
2015-Jan-17 07:33N 35°07' E 139°44'1010.4
2015-Jan-17 06:33N 35°18' E 139°44'1010.3
2015-Jan-17 05:33N 35°28' E 139°48'8 7.0
2015-Jan-17 04:27N 35°29' E 139°58'0 0.2
2015-Jan-17 02:17N 35°28' E 139°58'0 0.0
2015-Jan-17 01:33N 35°28' E 139°58'0 0.0
2015-Jan-17 00:30N 35°28' E 139°58'0 0.0
2015-Jan-16 23:29N 35°28' E 139°58'0 0.0
2015-Jan-16 22:17N 35°28' E 139°58'0 0.0
2015-Jan-16 21:29N 35°28' E 139°58'0 0.0
2015-Jan-16 20:28N 35°28' E 139°58'0 0.0
2015-Jan-16 19:28N 35°28' E 139°58'0 0.0
2015-Jan-16 18:33N 35°28' E 139°58'0 0.0
2015-Jan-16 17:33N 35°28' E 139°58'0 0.0
2015-Jan-16 16:32N 35°28' E 139°58'0 0.0
2015-Jan-16 15:32N 35°28' E 139°58'0 0.0
2015-Jan-16 14:32N 35°28' E 139°58'0 0.0
2015-Jan-16 13:25N 35°28' E 139°58'0 0.0
2015-Jan-16 12:31N 35°28' E 139°58'0 0.0
2015-Jan-16 05:15N 35°28' E 139°58'1 1.4
2015-Jan-16 04:33N 35°29' E 139°57'7 6.9
2015-Jan-16 03:33N 35°27' E 139°49'1110.8
2015-Jan-16 02:33N 35°16' E 139°46'9 8.8
2015-Jan-16 01:33N 35°07' E 139°46'8 8.0
2015-Jan-16 00:33N 35°00' E 139°42'9 9.0
2015-Jan-15 23:33N 34°51' E 139°41'  
Track history (hours):
 
Tides and Currents Weather Stations Pressure Air Temp Water Temp Dewpoint Dewpoint Depression Visibility Wind Speed Wind Dir Waves Ship Positions

Abadi

Last reported at 2015-Jan-17 10:07 UTC. Time now 2015-Jan-29 12:23 UTC.
Position N 34°31' E 139°35'.
Warning: this ship's position is 12 days out of date.

Type: Ship (hazmat cat A). MMSI: 508011000.

Date/timePositionNaut miles runAvg speedWind from/ knotsBaromVisibWave heightAir tempDewpointWater temp
2015-Jan-17 10:07N 34°31' E 139°35'1115.3
2015-Jan-17 09:23N 34°42' E 139°38'1416.4
2015-Jan-17 08:33N 34°56' E 139°38'1212.5
2015-Jan-17 07:33N 35°07' E 139°44'1010.4
2015-Jan-17 06:33N 35°18' E 139°44'1010.3
2015-Jan-17 05:33N 35°28' E 139°48'8 7.0
2015-Jan-17 04:27N 35°29' E 139°58'0 0.2
2015-Jan-17 02:17N 35°28' E 139°58'0 0.0
2015-Jan-17 01:33N 35°28' E 139°58'0 0.0
2015-Jan-17 00:30N 35°28' E 139°58'0 0.0
2015-Jan-16 23:29N 35°28' E 139°58'0 0.0
2015-Jan-16 22:17N 35°28' E 139°58'0 0.0
2015-Jan-16 21:29N 35°28' E 139°58'0 0.0
2015-Jan-16 20:28N 35°28' E 139°58'0 0.0
2015-Jan-16 19:28N 35°28' E 139°58'0 0.0
2015-Jan-16 18:33N 35°28' E 139°58'0 0.0
2015-Jan-16 17:33N 35°28' E 139°58'0 0.0
2015-Jan-16 16:32N 35°28' E 139°58'0 0.0
2015-Jan-16 15:32N 35°28' E 139°58'0 0.0
2015-Jan-16 14:32N 35°28' E 139°58'0 0.0
2015-Jan-16 13:25N 35°28' E 139°58'0 0.0
2015-Jan-16 12:31N 35°28' E 139°58'0 0.0
2015-Jan-16 05:15N 35°28' E 139°58'1 1.4
2015-Jan-16 04:33N 35°29' E 139°57'7 6.9
2015-Jan-16 03:33N 35°27' E 139°49'1110.8
2015-Jan-16 02:33N 35°16' E 139°46'9 8.8
2015-Jan-16 01:33N 35°07' E 139°46'8 8.0
2015-Jan-16 00:33N 35°00' E 139°42'9 9.0
2015-Jan-15 23:33N 34°51' E 139°41'  

Dump ship's entire track history